createdAt,value
2023-07-03T00:01:52.225Z,41.60
2023-07-03T00:04:19.181Z,41.50
2023-07-03T00:06:45.969Z,41.30
2023-07-03T00:09:12.726Z,41.50
2023-07-03T00:11:39.402Z,41.40
2023-07-03T00:14:07.472Z,41.50
2023-07-03T00:16:34.185Z,41.40
2023-07-03T00:19:00.905Z,41.60
2023-07-03T00:21:27.602Z,41.40
2023-07-03T00:23:54.280Z,41.70
2023-07-03T00:26:20.992Z,41.60
2023-07-03T00:28:47.676Z,41.80
2023-07-03T00:31:15.835Z,41.60
2023-07-03T00:33:42.604Z,41.50
2023-07-03T00:36:09.363Z,41.60
2023-07-03T00:38:36.072Z,41.50
2023-07-03T00:41:02.747Z,41.40
2023-07-03T00:43:32.887Z,41.60
2023-07-03T00:46:00.066Z,41.40
2023-07-03T00:48:28.980Z,41.50
2023-07-03T00:50:56.291Z,41.40
2023-07-03T00:53:23.000Z,41.40
2023-07-03T00:55:49.914Z,41.70
2023-07-03T00:58:16.915Z,41.50
2023-07-03T01:00:51.886Z,41.60
2023-07-03T01:03:26.759Z,41.40
2023-07-03T01:05:55.988Z,41.60
2023-07-03T01:08:23.451Z,41.50
2023-07-03T01:10:50.477Z,41.70
2023-07-03T01:13:18.958Z,41.50
2023-07-03T01:15:46.481Z,41.80
2023-07-03T01:18:14.338Z,41.70
2023-07-03T01:20:46.507Z,41.40
2023-07-03T01:23:21.918Z,41.70
2023-07-03T01:25:51.518Z,41.60
2023-07-03T01:28:22.060Z,42.00
2023-07-03T01:30:51.896Z,42.10
2023-07-03T01:33:22.149Z,42.10
2023-07-03T01:35:51.936Z,42.00
2023-07-03T01:38:20.102Z,42.00
2023-07-03T01:40:47.264Z,42.20
2023-07-03T01:43:15.708Z,42.20
2023-07-03T01:45:43.895Z,42.40
2023-07-03T01:48:10.755Z,42.20
2023-07-03T01:50:39.032Z,42.10
2023-07-03T01:53:11.325Z,42.20
2023-07-03T01:55:43.903Z,41.70
2023-07-03T01:58:19.615Z,41.70
2023-07-03T02:00:50.853Z,41.90
2023-07-03T02:03:25.701Z,41.60
2023-07-03T02:05:56.285Z,41.80
2023-07-03T02:08:24.865Z,41.80
2023-07-03T02:10:51.561Z,41.60
2023-07-03T02:13:19.628Z,41.60
2023-07-03T02:15:46.365Z,41.60
2023-07-03T02:18:13.069Z,41.70
2023-07-03T02:20:39.815Z,41.40
2023-07-03T02:23:06.559Z,41.60
2023-07-03T02:25:33.280Z,41.70
2023-07-03T02:27:59.960Z,41.70
2023-07-03T02:30:28.027Z,41.80
2023-07-03T02:32:54.785Z,41.90
2023-07-03T02:35:21.594Z,42.00
2023-07-03T02:37:48.302Z,42.00
2023-07-03T02:40:15.202Z,41.90
2023-07-03T02:42:41.983Z,42.00
2023-07-03T02:45:09.392Z,42.60
2023-07-03T02:47:38.498Z,42.00
2023-07-03T02:50:06.131Z,41.80
2023-07-03T02:52:32.980Z,42.00
2023-07-03T02:54:59.721Z,42.10
2023-07-03T02:57:26.426Z,42.10
2023-07-03T02:59:53.191Z,42.00
2023-07-03T03:02:20.484Z,42.00
2023-07-03T03:04:48.737Z,42.00
2023-07-03T03:07:15.742Z,41.80
2023-07-03T03:09:42.494Z,41.80
2023-07-03T03:12:09.828Z,42.10
2023-07-03T03:14:36.548Z,41.60
2023-07-03T03:17:03.578Z,41.80
2023-07-03T03:19:30.341Z,42.00
2023-07-03T03:21:58.405Z,41.50
2023-07-03T03:24:25.951Z,41.90
2023-07-03T03:26:52.784Z,41.70
2023-07-03T03:29:19.485Z,41.90
2023-07-03T03:31:46.182Z,41.60
2023-07-03T03:34:12.890Z,41.80
2023-07-03T03:36:40.480Z,41.90
2023-07-03T03:39:08.710Z,41.90
2023-07-03T03:41:35.415Z,41.80
2023-07-03T03:44:02.151Z,42.00
2023-07-03T03:46:28.972Z,42.40
2023-07-03T03:48:55.903Z,42.40
2023-07-03T03:51:23.175Z,42.70
2023-07-03T03:53:49.920Z,42.80
2023-07-03T03:56:18.033Z,42.90
2023-07-03T03:58:44.749Z,42.70
2023-07-03T04:01:11.724Z,42.70
2023-07-03T04:03:38.677Z,43.10
2023-07-03T04:06:06.129Z,42.70
2023-07-03T04:08:33.125Z,42.50
2023-07-03T04:10:59.789Z,42.80
2023-07-03T04:13:27.915Z,42.50
2023-07-03T04:16:01.061Z,42.70
2023-07-03T04:18:29.135Z,42.70
2023-07-03T04:20:56.035Z,42.50
2023-07-03T04:23:23.164Z,42.70
2023-07-03T04:25:50.230Z,42.70
2023-07-03T04:28:18.882Z,42.90
2023-07-03T04:30:47.597Z,42.70
2023-07-03T04:33:14.508Z,42.40
2023-07-03T04:35:41.752Z,42.70
2023-07-03T04:38:08.754Z,42.60
2023-07-03T04:40:35.984Z,42.60
2023-07-03T04:43:02.725Z,42.70
2023-07-03T04:45:32.428Z,42.90
2023-07-03T04:48:00.471Z,43.10
2023-07-03T04:50:27.155Z,43.00
2023-07-03T04:52:56.120Z,43.10
2023-07-03T04:55:23.554Z,42.90
2023-07-03T04:57:50.274Z,43.20
2023-07-03T05:00:19.474Z,42.70
2023-07-03T05:02:48.085Z,42.40
2023-07-03T05:05:17.829Z,42.50
2023-07-03T05:07:46.000Z,43.20
2023-07-03T05:10:16.164Z,43.00
2023-07-03T05:12:42.994Z,43.30
2023-07-03T05:15:11.880Z,43.00
2023-07-03T05:17:39.184Z,43.10
2023-07-03T05:20:07.441Z,43.30
2023-07-03T05:22:36.453Z,43.40
2023-07-03T05:25:03.259Z,43.70
2023-07-03T05:27:29.954Z,43.50
2023-07-03T05:29:56.700Z,43.00
2023-07-03T05:32:23.537Z,42.60
2023-07-03T05:34:50.257Z,42.70
2023-07-03T05:37:17.913Z,42.70
2023-07-03T05:39:46.099Z,42.50
2023-07-03T05:42:12.807Z,42.30
2023-07-03T05:44:39.529Z,42.20
2023-07-03T05:47:07.977Z,42.20
2023-07-03T05:49:34.875Z,42.30
2023-07-03T05:52:01.591Z,42.20
2023-07-03T05:54:28.258Z,42.50
2023-07-03T05:57:00.858Z,42.90
2023-07-03T05:59:27.922Z,42.60
2023-07-03T06:01:56.629Z,42.70
2023-07-03T06:04:23.574Z,42.40
2023-07-03T06:06:50.482Z,42.50
2023-07-03T06:09:17.234Z,42.40
2023-07-03T06:11:43.971Z,42.40
2023-07-03T06:14:15.952Z,42.40
2023-07-03T06:16:42.875Z,43.00
2023-07-03T06:19:10.057Z,42.40
2023-07-03T06:21:36.795Z,42.30
2023-07-03T06:24:03.709Z,41.90
2023-07-03T06:26:30.466Z,41.70
2023-07-03T06:28:57.322Z,41.50
2023-07-03T06:31:25.378Z,41.30
2023-07-03T06:33:52.114Z,41.30
2023-07-03T06:36:18.999Z,41.20
2023-07-03T06:38:45.704Z,41.30
2023-07-03T06:41:12.399Z,41.10
2023-07-03T06:43:39.117Z,40.90
2023-07-03T06:46:05.827Z,40.90
2023-07-03T06:48:33.876Z,41.10
2023-07-03T06:51:04.447Z,40.90
2023-07-03T06:53:31.168Z,40.80
2023-07-03T06:55:59.083Z,40.80
2023-07-03T06:58:27.446Z,40.90
2023-07-03T07:00:54.297Z,41.10
2023-07-03T07:03:21.463Z,40.80
2023-07-03T07:05:50.054Z,40.60
2023-07-03T07:08:17.179Z,40.60
2023-07-03T07:10:44.125Z,40.40
2023-07-03T07:13:11.203Z,39.80
2023-07-03T07:15:38.728Z,39.90
2023-07-03T07:18:07.927Z,39.80
2023-07-03T07:20:37.358Z,39.40
2023-07-03T07:23:05.697Z,39.40
2023-07-03T07:25:32.382Z,39.30
2023-07-03T07:27:59.096Z,39.50
2023-07-03T07:30:25.902Z,39.20
2023-07-03T07:32:52.755Z,39.40
2023-07-03T07:35:20.467Z,39.00
2023-07-03T07:37:47.272Z,38.40
2023-07-03T07:40:16.483Z,37.60
2023-07-03T07:42:43.238Z,37.50
2023-07-03T07:45:10.748Z,37.30
2023-07-03T07:47:37.451Z,36.90
2023-07-03T07:50:04.955Z,36.70
2023-07-03T07:52:31.691Z,36.90
2023-07-03T07:54:59.077Z,37.90
2023-07-03T07:57:27.582Z,37.60
2023-07-03T07:59:54.397Z,35.20
2023-07-03T08:02:21.269Z,36.60
2023-07-03T08:04:48.259Z,35.60
2023-07-03T08:07:15.053Z,34.60
2023-07-03T08:09:42.826Z,34.90
2023-07-03T08:12:10.342Z,33.90
2023-07-03T08:14:38.402Z,33.40
2023-07-03T08:17:05.522Z,34.50
2023-07-03T08:19:32.227Z,34.30
2023-07-03T08:21:58.912Z,33.80
2023-07-03T08:24:25.742Z,32.90
2023-07-03T08:26:52.420Z,32.90
2023-07-03T08:29:19.108Z,33.50
2023-07-03T08:31:47.300Z,32.40
2023-07-03T08:34:14.018Z,31.40
2023-07-03T08:39:10.620Z,32.50
2023-07-03T08:41:42.700Z,32.80
2023-07-03T08:44:11.045Z,32.40
2023-07-03T08:46:39.426Z,32.30
2023-07-03T08:49:11.409Z,31.90
2023-07-03T08:51:40.019Z,32.80
2023-07-03T08:54:14.992Z,32.00
2023-07-03T08:56:41.953Z,32.40
2023-07-03T08:59:09.649Z,31.70
2023-07-03T09:01:47.324Z,32.00
2023-07-03T09:04:29.041Z,30.40
2023-07-03T09:06:59.456Z,30.80
2023-07-03T09:09:33.321Z,30.80
2023-07-03T09:12:07.040Z,31.20
2023-07-03T09:14:42.405Z,30.60
2023-07-03T09:17:10.727Z,31.90
2023-07-03T09:19:43.841Z,31.50
2023-07-03T09:22:17.812Z,30.30
2023-07-03T09:24:46.845Z,32.00
2023-07-03T09:27:19.577Z,32.90
2023-07-03T09:29:46.995Z,30.20
2023-07-03T09:32:25.161Z,29.90
2023-07-03T09:35:01.272Z,29.70
2023-07-03T09:37:28.099Z,30.00
2023-07-03T09:39:55.475Z,31.20
2023-07-03T09:42:24.078Z,30.60
2023-07-03T09:44:51.425Z,30.70
2023-07-03T09:47:21.823Z,31.40
2023-07-03T09:49:49.592Z,30.80
2023-07-03T09:52:17.914Z,29.60
2023-07-03T09:54:47.563Z,31.00
2023-07-03T09:57:24.855Z,29.70
2023-07-03T09:59:51.768Z,29.80
2023-07-03T10:07:23.740Z,29.40
2023-07-03T10:12:27.971Z,30.60
2023-07-03T10:15:00.169Z,30.00
2023-07-03T10:17:31.636Z,29.80
2023-07-03T10:20:02.342Z,29.70
2023-07-03T10:22:31.686Z,28.70
2023-07-03T10:25:03.989Z,28.60
2023-07-03T10:27:32.692Z,28.50
2023-07-03T10:30:01.228Z,28.80
2023-07-03T10:32:31.981Z,29.40
2023-07-03T10:35:07.446Z,28.90
2023-07-03T10:37:44.025Z,29.40
2023-07-03T10:40:18.272Z,30.10
2023-07-03T10:42:49.629Z,28.40
2023-07-03T10:45:16.891Z,28.60
2023-07-03T10:47:49.660Z,29.90
2023-07-03T10:50:17.502Z,29.60
2023-07-03T10:52:53.219Z,29.70
2023-07-03T10:55:27.826Z,28.30
2023-07-03T10:58:03.823Z,29.00
2023-07-03T11:00:35.717Z,29.20
2023-07-03T11:03:21.108Z,29.50
2023-07-03T11:05:57.668Z,30.00
2023-07-03T11:08:32.553Z,29.10
2023-07-03T11:11:07.783Z,29.60
2023-07-03T11:13:39.842Z,29.80
2023-07-03T11:16:13.258Z,30.30
2023-07-03T11:24:12.325Z,32.50
2023-07-03T11:29:11.841Z,31.10
2023-07-03T11:31:42.787Z,30.60
2023-07-03T11:36:51.026Z,32.10
2023-07-03T11:44:43.766Z,32.20
2023-07-03T11:47:13.266Z,32.70
2023-07-03T11:49:45.666Z,31.10
2023-07-03T11:52:14.462Z,32.60
2023-07-03T11:54:43.855Z,32.90
2023-07-03T11:57:26.909Z,32.60
2023-07-03T11:59:54.129Z,33.10
2023-07-03T12:02:55.889Z,32.80
2023-07-03T12:05:54.020Z,32.80
2023-07-03T12:08:40.895Z,31.70
2023-07-03T12:11:09.144Z,32.80
2023-07-03T12:13:46.429Z,31.90
2023-07-03T12:16:18.579Z,31.50
2023-07-03T12:18:45.508Z,32.70
2023-07-03T12:21:12.563Z,32.50
2023-07-03T12:23:41.536Z,32.30
2023-07-03T12:26:11.312Z,31.40
2023-07-03T12:28:38.563Z,31.00
2023-07-03T12:31:13.731Z,31.50
2023-07-03T12:33:49.824Z,31.50
2023-07-03T12:36:21.911Z,31.40
2023-07-03T12:38:48.694Z,31.40
2023-07-03T12:41:23.125Z,31.70
2023-07-03T12:44:03.496Z,32.70
2023-07-03T12:46:36.969Z,30.80
2023-07-03T12:49:05.748Z,31.30
2023-07-03T12:51:40.279Z,30.80
2023-07-03T12:54:09.207Z,31.50
2023-07-03T12:56:37.769Z,30.60
2023-07-03T12:59:05.024Z,31.40
2023-07-03T13:01:32.287Z,30.80
2023-07-03T13:03:59.288Z,30.90
2023-07-03T13:06:29.100Z,31.20
2023-07-03T13:08:57.187Z,31.20
2023-07-03T13:11:35.923Z,30.80
2023-07-03T13:14:13.212Z,30.50
2023-07-03T13:16:40.851Z,31.20
2023-07-03T13:19:07.834Z,31.00
2023-07-03T13:21:36.704Z,30.10
2023-07-03T13:24:09.238Z,30.50
2023-07-03T13:26:36.226Z,32.00
2023-07-03T13:29:03.881Z,31.40
2023-07-03T13:31:46.506Z,30.90
2023-07-03T13:34:19.828Z,31.10
2023-07-03T13:36:48.513Z,31.60
2023-07-03T13:39:26.985Z,31.70
2023-07-03T13:41:55.772Z,31.10
2023-07-03T13:44:25.231Z,30.40
2023-07-03T13:46:54.764Z,30.00
2023-07-03T13:49:21.656Z,29.40
2023-07-03T13:51:49.891Z,30.30
2023-07-03T13:54:17.111Z,29.00
2023-07-03T13:56:44.413Z,28.50
2023-07-03T13:59:11.759Z,29.10
2023-07-03T14:01:39.854Z,29.40
2023-07-03T14:04:09.812Z,29.00
2023-07-03T14:06:36.668Z,29.60
2023-07-03T14:09:03.830Z,30.80
2023-07-03T14:11:30.777Z,30.40
2023-07-03T14:13:57.839Z,30.40
2023-07-03T14:16:24.967Z,29.50
2023-07-03T14:18:51.696Z,30.20
2023-07-03T14:21:21.808Z,31.10
2023-07-03T14:23:48.556Z,30.70
2023-07-03T14:26:15.757Z,31.40
2023-07-03T14:28:44.084Z,31.50
2023-07-03T14:31:13.167Z,32.50
2023-07-03T14:33:40.148Z,31.60
2023-07-03T14:36:07.044Z,31.00
2023-07-03T14:38:35.126Z,30.60
2023-07-03T14:41:01.886Z,30.50
2023-07-03T14:43:28.673Z,30.60
2023-07-03T14:45:55.447Z,31.20
2023-07-03T14:48:22.353Z,30.50
2023-07-03T14:50:49.539Z,31.30
2023-07-03T14:53:16.531Z,32.10
2023-07-03T14:55:53.869Z,32.80
2023-07-03T14:58:20.678Z,32.40
2023-07-03T15:00:47.430Z,32.40
2023-07-03T15:03:14.624Z,31.50
2023-07-03T15:05:41.746Z,31.00
2023-07-03T15:08:08.665Z,31.40
2023-07-03T15:10:36.109Z,32.10
2023-07-03T15:13:04.305Z,32.40
2023-07-03T15:15:31.068Z,32.40
2023-07-03T15:17:58.818Z,32.50
2023-07-03T15:20:25.734Z,32.20
2023-07-03T15:22:53.280Z,32.10
2023-07-03T15:25:20.406Z,32.10
2023-07-03T15:27:47.334Z,31.90
2023-07-03T15:30:15.473Z,32.70
2023-07-03T15:32:42.265Z,32.20
2023-07-03T15:35:09.528Z,32.00
2023-07-03T15:37:36.727Z,31.90
2023-07-03T15:40:04.517Z,32.20
2023-07-03T15:42:31.235Z,32.40
2023-07-03T15:44:58.905Z,32.60
2023-07-03T15:47:27.494Z,32.50
2023-07-03T15:49:55.046Z,33.10
2023-07-03T15:52:21.781Z,33.50
2023-07-03T15:54:49.984Z,32.80
2023-07-03T15:57:16.741Z,33.10
2023-07-03T15:59:43.532Z,33.30
2023-07-03T16:02:10.271Z,33.60
2023-07-03T16:04:38.327Z,33.30
2023-07-03T16:07:05.656Z,33.00
2023-07-03T16:09:32.339Z,33.60
2023-07-03T16:11:59.125Z,33.80
2023-07-03T16:14:27.329Z,33.20
2023-07-03T16:16:54.067Z,33.60
2023-07-03T16:19:28.100Z,34.20
2023-07-03T16:21:56.178Z,33.90
2023-07-03T16:24:22.880Z,33.90
2023-07-03T16:26:49.607Z,34.10
2023-07-03T16:29:16.726Z,34.20
2023-07-03T16:31:46.127Z,34.10
2023-07-03T16:34:13.247Z,33.60
2023-07-03T16:36:39.949Z,33.50
2023-07-03T16:39:08.664Z,33.90
2023-07-03T16:41:38.317Z,34.40
2023-07-03T16:44:05.322Z,34.30
2023-07-03T16:46:32.409Z,34.10
2023-07-03T16:48:59.524Z,33.40
2023-07-03T16:51:27.455Z,33.30
2023-07-03T16:53:54.316Z,33.20
2023-07-03T16:56:25.230Z,33.50
2023-07-03T16:58:55.455Z,34.00
2023-07-03T17:01:24.088Z,34.20
2023-07-03T17:03:52.601Z,33.80
2023-07-03T17:06:20.813Z,33.50
2023-07-03T17:08:48.110Z,33.90
2023-07-03T17:11:15.010Z,34.10
2023-07-03T17:13:43.401Z,33.70
2023-07-03T17:16:10.333Z,33.30
2023-07-03T17:18:37.314Z,32.90
2023-07-03T17:21:04.208Z,33.00
2023-07-03T17:23:31.129Z,33.00
2023-07-03T17:25:58.289Z,33.30
2023-07-03T17:28:25.067Z,33.60
2023-07-03T17:30:53.156Z,34.10
2023-07-03T17:33:19.820Z,34.20
2023-07-03T17:35:46.552Z,34.50
2023-07-03T17:38:14.197Z,34.70
2023-07-03T17:40:43.183Z,34.40
2023-07-03T17:43:10.123Z,34.80
2023-07-03T17:45:36.904Z,34.70
2023-07-03T17:48:05.709Z,34.70
2023-07-03T17:50:32.693Z,34.90
2023-07-03T17:52:59.444Z,33.80
2023-07-03T17:55:26.155Z,33.90
2023-07-03T17:57:52.886Z,33.10
2023-07-03T18:00:22.918Z,33.20
2023-07-03T18:02:49.692Z,32.60
2023-07-03T18:05:18.103Z,32.50
2023-07-03T18:07:45.273Z,31.90
2023-07-03T18:10:12.024Z,32.00
2023-07-03T18:12:38.779Z,31.90
2023-07-03T18:15:06.211Z,32.20
2023-07-03T18:17:32.998Z,32.10
2023-07-03T18:19:59.771Z,32.30
2023-07-03T18:22:27.842Z,31.90
2023-07-03T18:24:54.595Z,32.10
2023-07-03T18:27:21.299Z,32.00
2023-07-03T18:29:48.149Z,33.00
2023-07-03T18:32:14.853Z,32.40
2023-07-03T18:34:41.550Z,32.80
2023-07-03T18:37:08.245Z,32.90
2023-07-03T18:39:36.297Z,32.80
2023-07-03T18:42:03.215Z,33.30
2023-07-03T18:44:29.958Z,32.80
2023-07-03T18:46:56.641Z,33.50
2023-07-03T18:49:23.322Z,33.30
2023-07-03T18:51:50.794Z,33.30
2023-07-03T18:54:17.747Z,33.30
2023-07-03T18:56:45.761Z,33.40
2023-07-03T18:59:12.461Z,33.50
2023-07-03T19:01:39.336Z,33.10
2023-07-03T19:04:06.138Z,33.40
2023-07-03T19:06:32.929Z,33.50
2023-07-03T19:08:59.653Z,33.60
2023-07-03T19:11:26.703Z,33.90
2023-07-03T19:13:54.963Z,34.00
2023-07-03T19:16:21.799Z,34.10
2023-07-03T19:18:48.533Z,34.40
2023-07-03T19:21:15.636Z,34.40
2023-07-03T19:23:42.784Z,34.50
2023-07-03T19:26:10.572Z,34.70
2023-07-03T19:28:37.320Z,34.70
2023-07-03T19:31:05.723Z,34.90
2023-07-03T19:33:32.680Z,35.10
2023-07-03T19:36:00.779Z,35.10
2023-07-03T19:38:27.917Z,35.00
2023-07-03T19:40:54.847Z,35.20
2023-07-03T19:43:21.792Z,35.30
2023-07-03T19:45:48.913Z,35.20
2023-07-03T19:48:17.751Z,35.40
2023-07-03T19:50:44.545Z,35.30
2023-07-03T19:53:11.383Z,35.40
2023-07-03T19:55:38.414Z,35.60
2023-07-03T19:58:05.271Z,35.60
2023-07-03T20:00:32.743Z,35.60
2023-07-03T20:02:59.574Z,35.70
2023-07-03T20:05:27.761Z,35.80
2023-07-03T20:07:54.485Z,36.60
2023-07-03T20:10:21.203Z,36.00
2023-07-03T20:12:51.343Z,36.10
2023-07-03T20:15:21.220Z,36.20
2023-07-03T20:17:48.025Z,36.30
2023-07-03T20:23:31.349Z,36.30
2023-07-03T20:25:59.453Z,36.30
2023-07-03T20:28:50.298Z,36.60
2023-07-03T20:31:20.177Z,36.60
2023-07-03T20:33:47.012Z,36.70
2023-07-03T20:36:14.382Z,36.70
2023-07-03T20:38:42.799Z,36.90
2023-07-03T20:41:11.286Z,36.80
2023-07-03T20:43:39.355Z,36.80
2023-07-03T20:46:08.287Z,36.80
2023-07-03T20:48:35.411Z,36.80
2023-07-03T20:51:02.284Z,36.90
2023-07-03T20:53:29.356Z,36.90
2023-07-03T20:56:03.760Z,37.00
2023-07-03T20:58:30.458Z,37.00
2023-07-03T21:01:07.658Z,37.10
2023-07-03T21:03:34.362Z,37.20
2023-07-03T21:06:01.243Z,37.30
2023-07-03T21:08:28.124Z,37.30
2023-07-03T21:10:57.984Z,37.30
2023-07-03T21:13:26.151Z,37.30
2023-07-03T21:15:52.990Z,37.40
2023-07-03T21:18:19.846Z,37.40
2023-07-03T21:20:46.545Z,37.50
2023-07-03T21:23:13.403Z,37.50
2023-07-03T21:25:40.466Z,37.60
2023-07-03T21:28:07.173Z,37.60
2023-07-03T21:30:40.958Z,37.50
2023-07-03T21:33:09.820Z,37.80
2023-07-03T21:35:36.532Z,37.60
2023-07-03T21:38:03.260Z,37.70
2023-07-03T21:40:30.002Z,37.70
2023-07-03T21:42:56.699Z,37.70
2023-07-03T21:45:23.359Z,37.90
2023-07-03T21:47:51.461Z,37.80
2023-07-03T21:50:18.248Z,37.90
2023-07-03T21:52:46.090Z,38.00
2023-07-03T21:55:12.923Z,38.00
2023-07-03T21:57:40.771Z,38.00
2023-07-03T22:00:08.946Z,38.20
2023-07-03T22:02:35.685Z,38.40
2023-07-03T22:05:04.018Z,38.40
2023-07-03T22:07:30.781Z,38.30
2023-07-03T22:09:57.659Z,38.50
2023-07-03T22:12:24.433Z,38.20
2023-07-03T22:14:51.108Z,38.90
2023-07-03T22:17:17.869Z,38.70
2023-07-03T22:19:44.535Z,38.50
2023-07-03T22:22:12.566Z,38.60
2023-07-03T22:24:39.362Z,38.60
2023-07-03T22:27:06.154Z,38.60
2023-07-03T22:29:33.283Z,38.70
2023-07-03T22:32:00.008Z,38.70
2023-07-03T22:34:26.813Z,38.60
2023-07-03T22:36:53.512Z,38.60
2023-07-03T22:39:21.596Z,38.70
2023-07-03T22:41:48.385Z,38.80
2023-07-03T22:44:15.083Z,38.80
2023-07-03T22:46:41.767Z,39.00
2023-07-03T22:49:23.207Z,38.80
2023-07-03T22:51:51.162Z,38.80
2023-07-03T22:54:17.890Z,39.00
2023-07-03T22:56:46.018Z,38.80
2023-07-03T22:59:14.239Z,39.00
2023-07-03T23:01:42.042Z,39.00
2023-07-03T23:04:08.845Z,38.90
2023-07-03T23:06:35.776Z,39.00
2023-07-03T23:09:02.493Z,39.00
2023-07-03T23:11:29.167Z,39.10
2023-07-03T23:13:57.282Z,39.20
2023-07-03T23:16:24.090Z,39.10
2023-07-03T23:18:50.899Z,39.10
2023-07-03T23:21:17.614Z,39.20
2023-07-03T23:23:45.272Z,39.10
2023-07-03T23:26:14.113Z,39.10
2023-07-03T23:28:42.094Z,39.40
2023-07-03T23:31:11.710Z,39.50
2023-07-03T23:33:39.469Z,39.40
2023-07-03T23:36:08.727Z,39.20
2023-07-03T23:38:36.588Z,39.40
2023-07-03T23:41:03.689Z,39.40
2023-07-03T23:43:30.362Z,39.40
2023-07-03T23:45:57.139Z,39.40
2023-07-03T23:48:25.597Z,39.60
2023-07-03T23:50:54.150Z,39.20
2023-07-03T23:53:22.645Z,39.30
2023-07-03T23:55:50.063Z,39.20
2023-07-03T23:58:17.091Z,39.20
